Time;durP1;ratioP1;P1;durP2;ratioP2;P2;SDS_P1;SDS_P2;PMS_P1;PMS_P2;Temp;Humidity;BMP_temperature;BMP_pressure;BME280_temperature;BME280_humidity;BME280_pressure;Samples;Min_cycle;Max_cycle;Signal;HPM_P1;HPM_P2
2022/04/12 00:01:30;;;;;;;;;6.00;3.00;;;;;15.89;51.01;100283.72;5065784;28;45418;-77
2022/04/12 00:03:55;;;;;;;;;5.00;4.00;;;;;16.04;50.11;100304.94;5069045;28;46100;-77
2022/04/12 00:06:21;;;;;;;;;5.00;5.00;;;;;15.92;51.31;100293.47;5065822;28;45295;-76
2022/04/12 00:08:46;;;;;;;;;5.33;4.67;;;;;15.96;51.03;100297.88;5068582;28;45287;-77
2022/04/12 00:11:11;;;;;;;;;5.67;5.00;;;;;16.02;50.92;100305.84;5065944;28;45410;-76
2022/04/12 00:13:37;;;;;;;;;4.67;4.00;;;;;16.07;51.43;100318.25;5067323;28;46067;-76
2022/04/12 00:16:02;;;;;;;;;3.33;3.33;;;;;15.73;52.52;100258.03;5066165;28;45905;-75
2022/04/12 00:21:11;;;;;;;;;6.67;5.00;;;;;16.02;50.37;100317.41;5067287;28;45221;-77
2022/04/12 00:23:37;;;;;;;;;6.00;4.67;;;;;16.00;52.21;100324.53;5067076;27;45207;-76
2022/04/12 00:26:02;;;;;;;;;4.00;4.00;;;;;15.86;52.42;100297.06;5072640;28;45739;-76
2022/04/12 00:28:27;;;;;;;;;5.00;5.00;;;;;15.57;51.22;100244.78;5068429;27;45272;-76
2022/04/12 00:30:53;;;;;;;;;3.00;3.00;;;;;15.96;50.46;100316.53;5062782;28;45535;-76
2022/04/12 00:33:18;;;;;;;;;3.67;2.33;;;;;15.70;52.19;100290.03;5074014;28;48135;-76
2022/04/12 00:35:44;;;;;;;;;4.00;4.00;;;;;15.84;52.06;100320.16;5062447;28;45470;-76
2022/04/12 00:38:22;;;;;;;;;3.33;3.33;;;;;15.90;51.09;100333.44;5070091;28;45349;-76
2022/04/12 00:40:48;;;;;;;;;4.33;4.33;;;;;15.58;52.85;100280.28;5066520;28;45483;-76
2022/04/12 00:43:17;;;;;;;;;5.33;4.00;;;;;15.82;50.72;100317.53;5061462;28;45267;-76
2022/04/12 00:45:42;;;;;;;;;5.33;4.67;;;;;15.51;51.74;100271.41;5065125;28;45365;-76
2022/04/12 00:48:07;;;;;;;;;5.67;5.00;;;;;15.74;52.97;100318.41;5073788;27;45315;-76
2022/04/12 00:50:33;;;;;;;;;4.00;4.00;;;;;15.40;52.33;100268.81;5075358;28;46963;-76
2022/04/12 00:52:59;;;;;;;;;4.00;4.00;;;;;15.55;51.55;100291.84;5073209;27;45269;-76
2022/04/12 00:55:24;;;;;;;;;4.00;4.00;;;;;15.49;53.21;100289.22;5076668;28;45353;-76
2022/04/12 00:57:51;;;;;;;;;3.00;3.00;;;;;15.53;51.11;100301.59;5074423;27;45448;-76
2022/04/12 01:00:17;;;;;;;;;3.00;3.00;;;;;15.39;52.76;100290.13;5063345;28;45615;-77
2022/04/12 01:02:43;;;;;;;;;3.00;3.00;;;;;15.06;52.36;100230.75;5072001;27;46301;-76
2022/04/12 01:05:09;;;;;;;;;3.00;3.00;;;;;15.34;53.58;100281.25;5061864;28;45482;-76
2022/04/12 01:07:35;;;;;;;;;7.00;5.00;;;;;15.24;53.04;100263.56;5069099;27;45264;-76
2022/04/12 01:10:03;;;;;;;;;3.00;3.00;;;;;15.32;53.16;100293.69;5075334;28;46011;-77
2022/04/12 01:12:30;;;;;;;;;5.00;5.00;;;;;15.18;54.15;100280.44;5066670;28;46354;-76
2022/04/12 01:15:10;;;;;;;;;6.00;4.33;;;;;15.32;52.85;100310.56;5058531;28;45458;-77
2022/04/12 01:17:35;;;;;;;;;3.33;3.33;;;;;15.28;53.68;100306.13;5064590;28;45462;-76
2022/04/12 01:20:00;;;;;;;;;5.00;5.00;;;;;15.23;53.23;100302.59;5059981;27;45228;-76
2022/04/12 01:22:27;;;;;;;;;4.00;4.00;;;;;14.97;52.95;100262.72;5074216;28;47007;-77
2022/04/12 01:24:53;;;;;;;;;5.00;5.00;;;;;15.13;54.64;100314.19;5073016;27;45674;-77
2022/04/12 01:27:19;;;;;;;;;4.33;4.00;;;;;15.06;54.34;100315.94;5070597;28;45335;-76
2022/04/12 01:29:47;;;;;;;;;4.00;4.00;;;;;14.97;53.22;100300.88;5059624;28;45513;-77
2022/04/12 01:32:13;;;;;;;;;6.00;3.00;;;;;14.76;54.91;100264.56;5070206;28;46127;-76
2022/04/12 01:34:39;;;;;;;;;3.00;3.00;;;;;14.99;54.55;100307.09;5059523;28;45340;-76
2022/04/12 01:37:05;;;;;;;;;4.67;4.00;;;;;14.90;54.30;100299.13;5066471;28;45259;-76
2022/04/12 01:39:31;;;;;;;;;5.00;5.00;;;;;14.94;54.30;100311.53;5072208;27;45654;-76
2022/04/12 01:41:57;;;;;;;;;5.67;5.00;;;;;14.92;52.47;100313.28;5064595;28;46087;-76
2022/04/12 01:44:22;;;;;;;;;5.00;5.00;;;;;14.68;54.63;100287.63;5071563;28;45370;-76
2022/04/12 01:46:47;;;;;;;;;5.00;4.00;;;;;14.63;54.52;100286.72;5068382;28;45460;-76
2022/04/12 01:49:13;;;;;;;;;4.67;4.67;;;;;14.81;54.89;100330.16;5067302;28;45320;-76
2022/04/12 01:51:38;;;;;;;;;4.33;4.33;;;;;14.77;54.62;100331.94;5073451;28;45357;-76
2022/04/12 01:54:04;;;;;;;;;6.67;5.33;;;;;14.73;55.62;100333.72;5069591;28;45292;-76
2022/04/12 01:56:31;;;;;;;;;5.67;4.00;;;;;14.68;55.40;100324.88;5065487;28;45309;-76
2022/04/12 01:58:57;;;;;;;;;5.67;5.00;;;;;14.60;56.51;100326.63;5071281;28;45419;-76
2022/04/12 02:01:22;;;;;;;;;5.00;5.00;;;;;14.07;54.60;100240.59;5072232;27;45992;-76
2022/04/12 02:03:48;;;;;;;;;4.00;4.00;;;;;14.59;55.94;100327.53;5067295;28;45368;-77
2022/04/12 02:06:13;;;;;;;;;6.00;4.33;;;;;14.42;55.43;100295.53;5063702;28;45235;-76
2022/04/12 02:08:40;;;;;;;;;4.33;4.33;;;;;14.24;56.64;100267.19;5072662;27;45397;-76
2022/04/12 02:11:06;;;;;;;;;5.00;3.00;;;;;14.53;55.36;100314.19;5065629;28;45405;-76
2022/04/12 02:13:32;;;;;;;;;6.00;6.00;;;;;14.29;56.41;100265.44;5073026;27;45410;-77
2022/04/12 02:15:57;;;;;;;;;5.00;5.00;;;;;14.43;56.38;100286.69;5072785;27;45284;-76
2022/04/12 02:18:22;;;;;;;;;9.00;7.67;;;;;14.43;56.54;100283.16;5063282;28;45397;-76
2022/04/12 02:20:48;;;;;;;;;10.00;9.33;;;;;14.46;56.32;100299.13;5067596;28;47060;-76
2022/04/12 02:23:13;;;;;;;;;7.00;7.00;;;;;14.35;55.99;100280.50;5067784;27;45419;-76
2022/04/12 02:25:39;;;;;;;;;7.00;5.33;;;;;14.43;56.44;100296.47;5063057;28;45442;-77
2022/04/12 02:28:04;;;;;;;;;9.67;9.00;;;;;14.42;56.13;100292.88;5072988;28;45366;-77
2022/04/12 02:30:29;;;;;;;;;9.00;9.00;;;;;14.43;55.92;100284.03;5065378;28;45365;-77
2022/04/12 02:32:55;;;;;;;;;6.00;5.00;;;;;14.33;56.37;100275.16;5071852;27;45307;-76
2022/04/12 02:35:20;;;;;;;;;7.00;6.00;;;;;13.87;56.86;100202.50;5062705;28;45362;-77
2022/04/12 02:37:45;;;;;;;;;5.00;5.00;;;;;14.39;56.16;100299.97;5071472;27;46510;-77
2022/04/12 02:40:11;;;;;;;;;4.67;4.00;;;;;14.25;56.02;100278.69;5061158;28;47299;-77
2022/04/12 02:42:36;;;;;;;;;6.67;6.33;;;;;14.15;55.85;100276.94;5071004;28;45297;-77
2022/04/12 02:45:02;;;;;;;;;5.00;4.33;;;;;14.19;55.99;100290.22;5071064;27;45738;-77
2022/04/12 02:47:28;;;;;;;;;3.00;3.00;;;;;14.37;55.68;100315.03;5069864;28;45416;-78
2022/04/12 02:49:53;;;;;;;;;5.00;5.00;;;;;14.36;54.70;100308.84;5081881;27;47141;-76
2022/04/12 02:52:19;;;;;;;;;5.33;4.00;;;;;14.16;55.82;100284.00;5071692;28;45314;-76
2022/04/12 02:54:44;;;;;;;;;12.00;9.50;;;;;14.28;55.20;100299.97;5069665;27;45267;-76
2022/04/12 02:57:10;;;;;;;;;6.33;6.33;;;;;14.30;56.20;100311.50;5070322;28;47331;-76
2022/04/12 02:59:35;;;;;;;;;7.00;6.33;;;;;14.15;55.52;100274.28;5074181;28;45342;-76
2022/04/12 03:02:00;;;;;;;;;4.67;4.67;;;;;14.25;55.74;100292.88;5069745;27;45483;-75
2022/04/12 03:04:26;;;;;;;;;4.00;4.00;;;;;14.30;55.99;100299.09;5069140;28;45280;-76
2022/04/12 03:06:51;;;;;;;;;7.67;5.00;;;;;14.23;55.44;100281.38;5065239;28;45566;-76
2022/04/12 03:09:18;;;;;;;;;15.75;11.50;;;;;14.20;54.94;100268.09;5067824;28;46130;-75
2022/04/12 03:11:43;;;;;;;;;45.25;36.50;;;;;14.27;56.11;100275.16;5063975;28;45508;-76
2022/04/12 03:14:08;;;;;;;;;4.00;4.00;;;;;14.16;56.35;100255.66;5066715;28;45339;-76
2022/04/12 03:16:34;;;;;;;;;9.67;7.33;;;;;14.12;55.88;100237.06;5067307;28;47539;-76
2022/04/12 03:18:59;;;;;;;;;8.00;7.00;;;;;14.25;55.62;100254.78;5065013;27;46196;-76
2022/04/12 03:21:24;;;;;;;;;6.00;5.00;;;;;14.05;55.51;100238.81;5067041;28;45259;-76
2022/04/12 03:23:50;;;;;;;;;5.00;4.00;;;;;14.19;56.22;100266.28;5066717;27;45323;-76
2022/04/12 03:26:15;;;;;;;;;10.75;10.75;;;;;13.83;55.61;100206.88;5065366;28;45470;-76
2022/04/12 03:28:40;;;;;;;;;4.00;3.67;;;;;14.09;55.75;100264.53;5067512;27;46219;-76
2022/04/12 03:31:06;;;;;;;;;5.00;5.00;;;;;14.15;54.56;100268.97;5064479;28;45505;-76
2022/04/12 03:33:31;;;;;;;;;5.00;5.00;;;;;14.11;55.70;100278.69;5075968;28;45485;-76
2022/04/12 03:35:57;;;;;;;;;7.00;6.00;;;;;14.08;55.53;100268.06;5067442;28;46077;-76
2022/04/12 03:38:22;;;;;;;;;7.67;6.00;;;;;14.09;54.88;100265.41;5060719;27;45292;-75
2022/04/12 03:40:47;;;;;;;;;6.00;6.00;;;;;14.05;55.49;100262.72;5064653;28;45433;-76
2022/04/12 03:43:13;;;;;;;;;6.00;4.67;;;;;13.95;55.18;100263.59;5073269;27;45706;-76
2022/04/12 03:45:38;;;;;;;;;7.25;7.25;;;;;13.96;55.18;100279.56;5065374;27;45186;-76
2022/04/12 03:48:06;;;;;;;;;3.33;2.00;;;;;13.91;54.86;100285.75;5075442;28;46296;-76
2022/04/12 03:50:34;;;;;;;;;4.33;4.33;;;;;13.98;54.99;100311.47;5077717;27;46039;-76
2022/04/12 03:53:00;;;;;;;;;4.00;4.00;;;;;13.54;54.92;100225.44;5073417;28;45301;-76
2022/04/12 03:55:31;;;;;;;;;5.00;4.00;;;;;13.92;54.72;100293.72;5064118;27;45417;-76
2022/04/12 03:58:07;;;;;;;;;6.33;5.33;;;;;13.83;55.14;100275.97;5063176;28;48319;-76
2022/04/12 04:00:34;;;;;;;;;3.33;3.33;;;;;13.88;55.94;100271.56;5062903;28;45367;-76
2022/04/12 04:03:01;;;;;;;;;3.67;3.00;;;;;13.41;54.92;100191.75;5070720;28;45397;-76
2022/04/12 04:05:26;;;;;;;;;7.33;5.67;;;;;13.86;54.87;100270.69;5062408;28;45457;-76
2022/04/12 04:07:52;;;;;;;;;14.25;10.25;;;;;13.85;54.96;100260.03;5071316;28;46852;-76
2022/04/12 04:10:18;;;;;;;;;6.00;5.00;;;;;13.35;55.18;100183.78;5061716;28;45423;-76
2022/04/12 04:12:44;;;;;;;;;10.25;10.25;;;;;13.67;55.80;100244.97;5066381;27;45285;-76
2022/04/12 04:15:14;;;;;;;;;6.00;5.00;;;;;13.72;54.99;100268.84;5060713;28;45450;-76
2022/04/12 04:17:45;;;;;;;;;4.33;4.33;;;;;13.77;54.64;100299.88;5072633;28;45613;-76
2022/04/12 04:20:11;;;;;;;;;4.33;4.33;;;;;13.58;55.01;100250.22;5066058;28;45596;-81
2022/04/12 04:22:37;;;;;;;;;15.67;13.00;;;;;13.29;54.70;100200.56;5071825;28;45425;-81
2022/04/12 04:25:03;;;;;;;;;8.00;8.00;;;;;13.74;54.09;100289.22;5060497;28;45394;-78
2022/04/12 04:27:31;;;;;;;;;13.75;9.25;;;;;13.55;54.57;100258.19;5070601;28;45368;-78
2022/04/12 04:29:57;;;;;;;;;8.25;6.00;;;;;13.63;54.73;100267.06;5075511;28;45284;-79
2022/04/12 04:32:22;;;;;;;;;3.00;3.00;;;;;13.43;53.83;100237.78;5070566;28;45279;-81
2022/04/12 04:34:48;;;;;;;;;6.25;6.25;;;;;13.61;54.40;100283.00;5060046;28;45355;-80
2022/04/12 04:37:13;;;;;;;;;3.67;3.33;;;;;13.71;53.86;100299.84;5066956;28;46286;-77
2022/04/12 04:39:39;;;;;;;;;2.00;2.00;;;;;13.69;54.12;100298.06;5087240;27;45894;-82
2022/04/12 04:42:05;;;;;;;;;7.33;5.00;;;;;13.41;54.04;100269.66;5064460;28;45403;-78
2022/04/12 04:44:31;;;;;;;;;5.00;4.67;;;;;13.55;54.23;100288.25;5067115;28;46287;-77
2022/04/12 04:46:56;;;;;;;;;8.33;5.00;;;;;13.43;53.50;100267.88;5068315;28;46336;-78
2022/04/12 04:49:21;;;;;;;;;3.00;3.00;;;;;13.37;54.19;100266.97;5077193;28;45308;-78
2022/04/12 04:51:47;;;;;;;;;4.33;3.00;;;;;13.23;53.63;100244.75;5071075;28;45221;-78
2022/04/12 04:54:12;;;;;;;;;5.67;5.67;;;;;13.30;53.98;100271.34;5069617;28;45399;-78
2022/04/12 04:56:37;;;;;;;;;30.00;25.25;;;;;13.45;53.96;100307.72;5065853;28;45394;-79
2022/04/12 04:59:03;;;;;;;;;7.00;5.00;;;;;13.35;53.96;100301.47;5068281;28;44735;-78
2022/04/12 05:01:28;;;;;;;;;8.50;7.00;;;;;13.04;53.99;100257.03;5064614;28;45164;-78
2022/04/12 05:03:54;;;;;;;;;4.00;4.00;;;;;13.25;53.78;100291.66;5066574;28;46017;-77
2022/04/12 05:06:20;;;;;;;;;9.00;6.00;;;;;13.18;54.41;100298.69;5064549;28;46203;-80
2022/04/12 05:08:46;;;;;;;;;7.00;5.00;;;;;12.96;53.98;100249.91;5065499;28;45430;-78
2022/04/12 05:11:11;;;;;;;;;35.75;31.75;;;;;13.28;54.30;100310.28;5061857;28;45463;-78
2022/04/12 05:13:36;;;;;;;;;18.75;16.25;;;;;13.29;53.72;100327.97;5063875;28;45462;-78
2022/04/12 05:16:02;;;;;;;;;198.50;174.75;;;;;13.28;54.27;100335.94;5061959;28;47908;-78
2022/04/12 05:18:27;;;;;;;;;20.50;20.00;;;;;13.24;54.30;100334.09;5067881;27;45358;-78
2022/04/12 05:20:53;;;;;;;;;72.25;58.00;;;;;13.18;54.23;100335.84;5062447;28;45578;-80
2022/04/12 05:23:18;;;;;;;;;5.25;5.00;;;;;13.01;54.75;100307.44;5069460;28;45507;-79
2022/04/12 05:25:44;;;;;;;;;3.25;3.25;;;;;13.01;53.81;100308.31;5065853;27;45536;-78
2022/04/12 05:28:09;;;;;;;;;6.75;5.00;;;;;13.13;54.16;100334.91;5067838;28;45297;-75
2022/04/12 05:30:34;;;;;;;;;59.00;47.50;;;;;13.12;54.24;100334.94;5068317;28;45407;-76
2022/04/12 05:33:00;;;;;;;;;9.75;7.75;;;;;13.09;54.68;100338.44;5074398;28;46076;-77
2022/04/12 05:35:26;;;;;;;;;8.00;7.00;;;;;13.11;54.11;100341.13;5064537;28;45423;-78
2022/04/12 05:37:53;;;;;;;;;70.50;56.75;;;;;12.95;54.21;100311.81;5060528;28;45380;-76
2022/04/12 05:40:20;;;;;;;;;20.50;16.25;;;;;13.13;54.60;100342.00;5059359;28;45595;-78
2022/04/12 05:42:47;;;;;;;;;26.00;24.75;;;;;13.14;54.57;100343.78;5061154;28;45489;-77
2022/04/12 05:45:13;;;;;;;;;7.25;7.00;;;;;13.11;54.39;100327.84;5059059;28;45629;-79
2022/04/12 05:47:49;;;;;;;;;21.00;17.75;;;;;13.19;54.31;100331.41;5060118;28;45343;-75
2022/04/12 05:50:15;;;;;;;;;7.75;6.50;;;;;13.14;54.43;100325.22;5062642;28;45510;-76
2022/04/12 05:52:41;;;;;;;;;8.00;5.25;;;;;13.34;54.25;100349.25;5063884;27;45447;-75
2022/04/12 05:55:10;;;;;;;;;10.25;10.25;;;;;13.16;53.83;100307.50;5058363;28;45615;-74
2022/04/12 05:57:47;;;;;;;;;8.00;6.00;;;;;13.37;53.52;100341.31;5061864;28;45391;-76
2022/04/12 06:00:12;;;;;;;;;4.00;4.00;;;;;13.40;53.62;100339.53;5059145;28;45709;-78
2022/04/12 06:02:38;;;;;;;;;3.75;3.75;;;;;13.40;53.79;100342.19;5061355;28;45422;-76
2022/04/12 06:05:03;;;;;;;;;72.50;57.75;;;;;13.58;53.02;100360.00;5057676;28;46294;-77
2022/04/12 06:07:31;;;;;;;;;9.00;8.25;;;;;13.62;52.83;100359.13;5063907;28;45374;-78
2022/04/12 06:09:56;;;;;;;;;10.75;9.75;;;;;13.65;52.96;100360.91;5058187;28;45370;-77
2022/04/12 06:12:22;;;;;;;;;27.50;25.50;;;;;13.37;53.61;100307.66;5060999;28;45439;-77
2022/04/12 06:14:47;;;;;;;;;3.33;3.00;;;;;13.69;53.53;100359.16;5057738;28;45206;-78
2022/04/12 06:17:12;;;;;;;;;1.67;1.00;;;;;13.58;53.00;100341.41;5062282;28;45213;-74
2022/04/12 06:19:38;;;;;;;;;5.00;3.33;;;;;13.88;52.76;100369.84;5070628;28;45693;-77
2022/04/12 06:22:03;;;;;;;;;43.75;36.00;;;;;13.99;52.47;100371.69;5064240;28;46265;-75
2022/04/12 06:24:29;;;;;;;;;4.00;4.00;;;;;13.80;52.06;100342.38;5060043;28;47100;-76
2022/04/12 06:26:54;;;;;;;;;11.25;9.50;;;;;14.08;51.78;100383.22;5060899;28;45520;-76
2022/04/12 06:29:19;;;;;;;;;9.00;8.00;;;;;14.17;52.34;100389.44;5059078;28;45343;-77
2022/04/12 06:31:45;;;;;;;;;5.00;5.00;;;;;14.00;52.17;100338.91;5060905;28;45374;-77
2022/04/12 06:34:10;;;;;;;;;6.00;4.00;;;;;14.31;51.92;100377.97;5073720;28;48607;-76
2022/04/12 06:36:36;;;;;;;;;4.33;4.00;;;;;14.37;51.38;100381.50;5081917;27;45314;-77
2022/04/12 06:39:01;;;;;;;;;8.00;8.00;;;;;14.26;51.22;100362.91;5062656;28;45462;-76
2022/04/12 06:41:26;;;;;;;;;11.00;6.00;;;;;14.41;50.84;100400.16;5062660;27;45494;-75
2022/04/12 06:43:52;;;;;;;;;4.00;4.00;;;;;14.15;51.09;100354.91;5057470;28;45537;-76
2022/04/12 06:46:17;;;;;;;;;5.00;5.00;;;;;14.53;50.35;100405.50;5061453;28;45428;-76
2022/04/12 06:48:42;;;;;;;;;12.50;10.50;;;;;14.61;50.30;100397.56;5061361;28;45243;-75
2022/04/12 06:51:08;;;;;;;;;3.00;3.00;;;;;14.77;50.26;100406.44;5061603;27;45455;-76
2022/04/12 06:53:34;;;;;;;;;5.67;5.00;;;;;14.71;49.64;100393.16;5060267;27;45339;-75
2022/04/12 06:56:00;;;;;;;;;11.00;11.00;;;;;14.92;49.85;100424.19;5059345;28;45354;-75
2022/04/12 06:58:25;;;;;;;;;4.67;4.33;;;;;14.82;50.15;100393.16;5058528;28;45283;-75
2022/04/12 07:00:50;;;;;;;;;4.33;4.33;;;;;15.10;50.13;100436.63;5059875;28;45461;-77
2022/04/12 07:03:16;;;;;;;;;8.67;8.33;;;;;15.06;49.09;100432.19;5066820;28;46220;-74
2022/04/12 07:05:41;;;;;;;;;10.33;8.00;;;;;14.97;49.13;100431.28;5060252;28;45190;-76
2022/04/12 07:08:07;;;;;;;;;4.33;4.33;;;;;15.24;48.94;100436.63;5066445;28;45448;-77
2022/04/12 07:10:32;;;;;;;;;7.33;7.33;;;;;15.16;49.12;100404.69;5075885;28;45346;-77
2022/04/12 07:12:57;;;;;;;;;6.00;6.00;;;;;15.25;48.45;100410.00;5060008;28;45693;-75
2022/04/12 07:15:23;;;;;;;;;3.00;3.00;;;;;15.17;47.93;100380.69;5062369;28;45291;-75
2022/04/12 07:17:48;;;;;;;;;14.33;12.33;;;;;15.44;48.70;100408.19;5070699;27;45427;-75
2022/04/12 07:20:14;;;;;;;;;7.33;5.00;;;;;15.71;47.92;100446.34;5061480;28;45216;-75
2022/04/12 07:22:39;;;;;;;;;11.33;8.00;;;;;15.76;47.47;100440.09;5071656;28;45739;-75
2022/04/12 07:25:06;;;;;;;;;9.33;5.67;;;;;15.91;47.51;100447.19;5076736;28;45582;-75
2022/04/12 07:27:36;;;;;;;;;31.33;23.33;;;;;16.14;46.98;100455.09;5071933;27;45445;-75
2022/04/12 07:30:06;;;;;;;;;7.00;7.00;;;;;16.18;48.00;100434.63;5060926;28;45458;-75
2022/04/12 07:32:32;;;;;;;;;3.00;3.00;;;;;16.34;46.82;100431.00;5065962;28;45414;-74
2022/04/12 07:34:57;;;;;;;;;5.67;4.00;;;;;16.59;46.55;100441.53;5061042;28;45314;-75
2022/04/12 07:37:22;;;;;;;;;4.00;3.00;;;;;16.47;45.58;100403.38;5064796;28;45317;-75
2022/04/12 07:39:48;;;;;;;;;3.00;3.00;;;;;16.89;44.51;100456.50;5070764;28;45360;-75
2022/04/12 07:42:14;;;;;;;;;5.67;3.00;;;;;17.07;45.22;100443.00;5070707;27;45296;-75
2022/04/12 07:44:39;;;;;;;;;2.00;2.00;;;;;17.24;44.52;100453.53;5061360;28;45375;-75
2022/04/12 07:47:05;;;;;;;;;4.33;3.00;;;;;17.36;43.80;100433.84;5064792;28;45262;-75
2022/04/12 07:49:30;;;;;;;;;5.67;3.33;;;;;17.44;44.26;100423.97;5077009;28;46868;-75
2022/04/12 07:51:56;;;;;;;;;5.00;3.00;;;;;17.73;44.81;100447.75;5071586;28;46204;-75
2022/04/12 07:54:21;;;;;;;;;7.00;4.00;;;;;17.67;43.75;100423.72;5073397;27;45366;-75
2022/04/12 07:56:46;;;;;;;;;6.00;3.33;;;;;17.77;44.53;100414.72;5074533;28;45331;-75
2022/04/12 07:59:12;;;;;;;;;3.33;3.33;;;;;17.92;42.96;100421.69;5081720;28;47315;-74
2022/04/12 08:01:37;;;;;;;;;6.00;5.00;;;;;18.18;43.94;100444.59;5072226;27;45352;-76
2022/04/12 08:04:03;;;;;;;;;4.00;4.00;;;;;18.28;41.81;100440.88;5075138;28;45378;-76
2022/04/12 08:06:30;;;;;;;;;7.00;5.67;;;;;18.45;42.83;100449.56;5071819;27;45514;-74
2022/04/12 08:08:55;;;;;;;;;4.00;2.67;;;;;18.36;42.21;100395.28;5066468;28;45300;-76
2022/04/12 08:11:20;;;;;;;;;3.00;3.00;;;;;18.68;41.67;100411.78;5068258;28;45406;-76
2022/04/12 08:13:46;;;;;;;;;4.00;3.00;;;;;18.54;41.94;100363.78;5066646;27;45316;-75
2022/04/12 08:16:15;;;;;;;;;6.00;5.00;;;;;18.81;41.93;100377.66;5070691;28;45349;-75
2022/04/12 08:18:41;;;;;;;;;3.33;3.00;;;;;19.27;40.47;100421.53;5083109;27;46260;-76
2022/04/12 08:21:06;;;;;;;;;2.00;2.00;;;;;19.39;40.05;100410.63;5062658;28;45876;-76
2022/04/12 08:23:31;;;;;;;;;4.00;3.00;;;;;19.49;39.38;100398.81;5068689;27;45282;-76
2022/04/12 08:25:57;;;;;;;;;5.00;3.00;;;;;19.66;39.06;100394.06;5066639;28;45530;-75
2022/04/12 08:28:22;;;;;;;;;4.00;3.00;;;;;20.17;38.91;100432.41;5069015;28;45374;-76
2022/04/12 08:30:47;;;;;;;;;2.00;2.00;;;;;20.09;40.41;100386.94;5063303;28;46209;-76
2022/04/12 08:33:13;;;;;;;;;5.67;4.67;;;;;20.59;40.17;100432.41;5070976;27;45295;-75
2022/04/12 08:35:39;;;;;;;;;2.00;2.00;;;;;20.71;39.89;100421.38;5065366;27;45321;-75
2022/04/12 08:38:05;;;;;;;;;3.00;3.00;;;;;20.64;39.58;100388.41;5071016;27;45426;-76
2022/04/12 08:40:30;;;;;;;;;2.67;2.00;;;;;21.14;37.07;100436.44;5066032;28;45323;-76
2022/04/12 08:42:58;;;;;;;;;3.33;2.33;;;;;21.28;39.45;100426.22;5076178;28;45429;-75
2022/04/12 08:45:25;;;;;;;;;3.33;1.67;;;;;21.45;36.58;100424.03;5064219;27;45375;-76
2022/04/12 08:47:50;;;;;;;;;0.67;0.67;;;;;21.25;37.05;100391.34;5069077;28;45308;-75
2022/04/12 08:50:16;;;;;;;;;2.00;2.00;;;;;21.67;36.71;100428.81;5063833;27;45922;-76
2022/04/12 08:52:41;;;;;;;;;0.67;0.00;;;;;21.86;35.83;100440.81;5070111;28;45274;-76
2022/04/12 08:55:07;;;;;;;;;1.00;1.00;;;;;21.99;36.34;100427.03;5076862;27;45221;-76
2022/04/12 08:57:33;;;;;;;;;1.67;1.67;;;;;22.04;36.94;100434.06;5069056;27;45242;-76
2022/04/12 08:59:59;;;;;;;;;3.00;2.00;;;;;22.02;34.44;100429.63;5063689;27;45500;-76
2022/04/12 09:02:24;;;;;;;;;1.67;1.00;;;;;22.08;36.22;100438.41;5065678;28;45237;-75
2022/04/12 09:04:49;;;;;;;;;0.67;0.67;;;;;21.97;35.69;100415.44;5074338;27;45594;-73
2022/04/12 09:07:15;;;;;;;;;3.00;1.33;;;;;21.97;33.96;100400.16;5065605;28;45417;-76
2022/04/12 09:09:42;;;;;;;;;2.00;2.00;;;;;22.34;34.42;100437.66;5063340;27;45841;-76
2022/04/12 09:12:12;;;;;;;;;1.67;1.67;;;;;22.38;34.33;100421.41;5070467;28;45441;-76
2022/04/12 09:14:46;;;;;;;;;1.00;1.00;;;;;22.53;35.80;100431.72;5059338;28;45321;-74
2022/04/12 09:17:19;;;;;;;;;2.00;2.00;;;;;22.72;35.63;100432.91;5069953;28;45158;-76
2022/04/12 09:19:51;;;;;;;;;1.75;1.00;;;;;22.78;35.46;100424.63;5058383;28;46122;-76
2022/04/12 09:22:18;;;;;;;;;3.33;2.00;;;;;22.89;33.71;100420.72;5070285;28;45510;-77
2022/04/12 09:24:46;;;;;;;;;0.75;0.75;;;;;22.84;35.46;100410.09;5059197;28;45327;-75
2022/04/12 09:27:16;;;;;;;;;5.67;5.67;;;;;22.74;33.37;100389.75;5069626;28;45276;-76
2022/04/12 09:29:49;;;;;;;;;2.00;1.00;;;;;22.96;35.12;100406.13;5058778;28;45351;-76
2022/04/12 09:32:15;;;;;;;;;1.00;1.00;;;;;22.90;34.25;100384.75;5065169;28;45258;-77
2022/04/12 09:34:44;;;;;;;;;2.50;1.00;;;;;23.17;34.54;100407.25;5070946;27;45465;-76
2022/04/12 09:37:27;;;;;;;;;5.75;1.00;;;;;23.45;34.38;100410.75;5067592;28;45414;-77
2022/04/12 09:39:58;;;;;;;;;1.00;1.00;;;;;23.58;34.10;100418.38;5058612;28;46478;-74
2022/04/12 09:42:35;;;;;;;;;1.50;1.50;;;;;23.78;33.73;100415.91;5065636;28;45454;-76
2022/04/12 09:45:03;;;;;;;;;1.25;1.25;;;;;24.01;33.56;100406.06;5078506;28;45275;-76
2022/04/12 09:47:30;;;;;;;;;2.50;1.00;;;;;24.00;31.82;100375.50;5066401;28;45550;-75
2022/04/12 09:49:56;;;;;;;;;1.75;1.00;;;;;23.97;33.34;100329.69;5077739;27;45418;-75
2022/04/12 09:52:22;;;;;;;;;2.00;2.00;;;;;24.44;32.82;100363.91;5067220;28;45414;-76
2022/04/12 09:54:47;;;;;;;;;1.25;1.25;;;;;24.93;32.37;100402.47;5081406;27;45562;-75
2022/04/12 09:57:14;;;;;;;;;2.00;2.00;;;;;25.12;31.33;100395.34;5065887;28;45286;-75
2022/04/12 09:59:40;;;;;;;;;1.00;1.00;;;;;25.16;30.33;100366.38;5071374;27;46432;-76
2022/04/12 10:02:06;;;;;;;;;1.00;1.00;;;;;25.42;31.96;100381.47;5063149;28;45560;-75
2022/04/12 10:04:33;;;;;;;;;1.50;1.00;;;;;25.37;29.32;100356.44;5065001;28;45350;-76
2022/04/12 10:07:01;;;;;;;;;6.50;2.00;;;;;25.79;31.88;100410.47;5060863;28;45690;-76
2022/04/12 10:09:27;;;;;;;;;3.25;1.00;;;;;25.73;31.74;100405.34;5063959;28;45250;-75
2022/04/12 10:11:53;;;;;;;;;2.00;1.00;;;;;25.72;29.86;100390.06;5062118;28;48023;-75
2022/04/12 10:14:19;;;;;;;;;4.50;1.50;;;;;25.99;30.75;100392.47;5058292;28;45350;-78
2022/04/12 10:16:46;;;;;;;;;1.00;1.00;;;;;26.12;30.71;100386.41;5065904;28;45550;-79
2022/04/12 10:19:11;;;;;;;;;1.25;1.00;;;;;26.20;28.91;100385.19;5061554;27;46342;-78
2022/04/12 10:21:37;;;;;;;;;3.75;2.00;;;;;26.43;29.43;100370.53;5059806;28;45342;-79
2022/04/12 10:24:03;;;;;;;;;5.00;3.00;;;;;26.55;28.43;100343.75;5058482;28;45624;-80
2022/04/12 10:26:29;;;;;;;;;3.75;2.75;;;;;26.75;29.88;100334.63;5063400;28;45732;-79
2022/04/12 10:28:59;;;;;;;;;2.25;2.00;;;;;27.15;30.62;100358.84;5064028;27;45357;-79
2022/04/12 10:31:30;;;;;;;;;3.00;1.80;;;;;27.14;30.16;100314.56;5064731;28;45471;-79
2022/04/12 10:34:02;;;;;;;;;1.00;1.00;;;;;27.46;29.69;100347.28;5071478;28;45295;-79
2022/04/12 10:37:04;;;;;;;;;0.75;0.75;;;;;27.49;30.00;100346.25;5063291;28;45726;-78
2022/04/12 10:39:50;;;;;;;;;2.00;2.00;;;;;27.41;28.30;100319.50;5076981;28;46147;-79
2022/04/12 10:42:28;;;;;;;;;4.00;2.00;;;;;27.51;30.06;100326.22;5067017;28;46025;-80
2022/04/12 10:44:56;;;;;;;;;2.00;2.00;;;;;27.44;29.94;100349.22;5082817;27;45374;-79
2022/04/12 10:47:36;;;;;;;;;4.00;2.25;;;;;27.07;29.02;100329.41;5065174;28;46474;-79
2022/04/12 10:50:10;;;;;;;;;2.50;1.25;;;;;27.23;30.02;100378.38;5081999;28;46312;-79
2022/04/12 10:52:35;;;;;;;;;2.40;2.40;;;;;27.09;29.27;100392.59;5073108;28;45584;-79
2022/04/12 10:55:03;;;;;;;;;2.25;2.25;;;;;27.02;29.50;100383.00;5067940;27;45356;-81
2022/04/12 10:57:29;;;;;;;;;1.25;0.25;;;;;26.81;29.38;100327.16;5070785;28;45961;-81
2022/04/12 11:00:14;;;;;;;;;2.00;2.00;;;;;27.09;28.71;100379.03;5066353;27;46046;-81
2022/04/12 11:02:43;;;;;;;;;1.80;1.80;;;;;27.30;29.68;100396.06;5068968;28;45319;-80
2022/04/12 11:05:45;;;;;;;;;3.00;1.75;;;;;27.14;29.66;100360.69;5062853;27;45236;-79
2022/04/12 11:08:13;;;;;;;;;2.75;1.75;;;;;27.48;29.96;100415.97;5066783;28;45428;-80
2022/04/12 11:10:38;;;;;;;;;2.00;2.00;;;;;27.47;29.07;100419.63;5074975;27;47041;-80
2022/04/12 11:13:09;;;;;;;;;2.00;1.00;;;;;27.40;29.25;100420.91;5070165;28;45387;-80
2022/04/12 11:15:35;;;;;;;;;1.80;1.80;;;;;27.17;29.57;100401.28;5077951;28;45448;-79
2022/04/12 11:18:46;;;;;;;;;2.50;1.25;;;;;27.08;29.56;100428.81;5069371;28;46109;-81
2022/04/12 11:21:11;;;;;;;;;2.00;1.00;;;;;26.69;29.39;100391.91;5061139;28;46279;-80
2022/04/12 11:23:52;;;;;;;;;2.75;2.00;;;;;26.69;28.48;100437.09;5062030;27;45367;-80
2022/04/12 11:26:47;;;;;;;;;1.00;1.00;;;;;26.37;29.77;100422.34;5070825;28;45317;-77